sensor_id;sensor_type;location;lat;lon;timestamp;pressure;altitude;pressure_sealevel;temperature;humidity
69766;BME280;57039;48.014;21.384;2023-02-13T00:00:19;102862.91;;;-2.43;100.00
69766;BME280;57039;48.014;21.384;2023-02-13T00:01:23;102867.28;;;-2.41;100.00
69766;BME280;57039;48.014;21.384;2023-02-13T00:02:26;102862.06;;;-2.42;100.00
69766;BME280;57039;48.014;21.384;2023-02-13T00:03:29;102863.87;;;-2.40;100.00
69766;BME280;57039;48.014;21.384;2023-02-13T00:04:32;102841.25;;;-2.50;100.00
69766;BME280;57039;48.014;21.384;2023-02-13T00:05:36;102863.09;;;-2.39;100.00
69766;BME280;57039;48.014;21.384;2023-02-13T00:06:39;102855.91;;;-2.47;100.00
69766;BME280;57039;48.014;21.384;2023-02-13T00:07:42;102862.06;;;-2.42;100.00
69766;BME280;57039;48.014;21.384;2023-02-13T00:08:44;102867.22;;;-2.42;100.00
69766;BME280;57039;48.014;21.384;2023-02-13T00:09:47;102873.19;;;-2.43;100.00
69766;BME280;57039;48.014;21.384;2023-02-13T00:10:50;102868.91;;;-2.43;100.00
69766;BME280;57039;48.014;21.384;2023-02-13T00:11:54;102872.53;;;-2.38;100.00
69766;BME280;57039;48.014;21.384;2023-02-13T00:12:57;102873.47;;;-2.36;100.00
69766;BME280;57039;48.014;21.384;2023-02-13T00:13:59;102869.97;;;-2.38;100.00
69766;BME280;57039;48.014;21.384;2023-02-13T00:15:03;102865.38;;;-2.46;100.00
69766;BME280;57039;48.014;21.384;2023-02-13T00:16:06;102873.25;;;-2.42;100.00
69766;BME280;57039;48.014;21.384;2023-02-13T00:17:09;102864.53;;;-2.45;100.00
69766;BME280;57039;48.014;21.384;2023-02-13T00:18:12;102870.03;;;-2.36;100.00
69766;BME280;57039;48.014;21.384;2023-02-13T00:19:15;102873.47;;;-2.36;100.00
69766;BME280;57039;48.014;21.384;2023-02-13T00:20:18;102871.81;;;-2.34;100.00
69766;BME280;57039;48.014;21.384;2023-02-13T00:21:21;102872.72;;;-2.33;100.00
69766;BME280;57039;48.014;21.384;2023-02-13T00:22:24;102871.16;;;-2.28;100.00
69766;BME280;57039;48.014;21.384;2023-02-13T00:23:32;102871.13;;;-2.30;100.00
69766;BME280;57039;48.014;21.384;2023-02-13T00:24:35;102863.19;;;-2.36;100.00
69766;BME280;57039;48.014;21.384;2023-02-13T00:25:38;102863.03;;;-2.40;100.00
69766;BME280;57039;48.014;21.384;2023-02-13T00:26:41;102859.69;;;-2.38;100.00
69766;BME280;57039;48.014;21.384;2023-02-13T00:27:44;102864.00;;;-2.37;100.00
69766;BME280;57039;48.014;21.384;2023-02-13T00:28:47;102858.81;;;-2.38;100.00
69766;BME280;57039;48.014;21.384;2023-02-13T00:29:50;102859.75;;;-2.36;100.00
69766;BME280;57039;48.014;21.384;2023-02-13T00:31:01;102858.81;;;-2.38;100.00
69766;BME280;57039;48.014;21.384;2023-02-13T00:32:05;102856.28;;;-2.37;100.00
69766;BME280;57039;48.014;21.384;2023-02-13T00:33:08;102857.19;;;-2.36;100.00
69766;BME280;57039;48.014;21.384;2023-02-13T00:34:11;102854.63;;;-2.36;100.00
69766;BME280;57039;48.014;21.384;2023-02-13T00:35:14;102849.12;;;-2.45;100.00
69766;BME280;57039;48.014;21.384;2023-02-13T00:36:19;102865.44;;;-2.45;100.00
69766;BME280;57039;48.014;21.384;2023-02-13T00:37:23;102862.75;;;-2.48;100.00
69766;BME280;57039;48.014;21.384;2023-02-13T00:38:28;102862.69;;;-2.49;100.00
69766;BME280;57039;48.014;21.384;2023-02-13T00:39:31;102866.00;;;-2.52;100.00
69766;BME280;57039;48.014;21.384;2023-02-13T00:40:34;102864.19;;;-2.55;100.00
69766;BME280;57039;48.014;21.384;2023-02-13T00:41:38;102859.84;;;-2.57;100.00
69766;BME280;57039;48.014;21.384;2023-02-13T00:42:43;102861.47;;;-2.59;100.00
69766;BME280;57039;48.014;21.384;2023-02-13T00:43:47;102860.72;;;-2.57;100.00
69766;BME280;57039;48.014;21.384;2023-02-13T00:44:51;102855.62;;;-2.55;100.00
69766;BME280;57039;48.014;21.384;2023-02-13T00:45:54;102853.06;;;-2.55;100.00
69766;BME280;57039;48.014;21.384;2023-02-13T00:46:58;102853.13;;;-2.54;100.00
69766;BME280;57039;48.014;21.384;2023-02-13T00:48:01;102853.16;;;-2.52;100.00
69766;BME280;57039;48.014;21.384;2023-02-13T00:49:05;102854.81;;;-2.54;100.00
69766;BME280;57039;48.014;21.384;2023-02-13T00:50:09;102847.91;;;-2.55;100.00
69766;BME280;57039;48.014;21.384;2023-02-13T00:51:12;102855.62;;;-2.55;100.00
69766;BME280;57039;48.014;21.384;2023-02-13T00:52:15;102849.50;;;-2.59;100.00
69766;BME280;57039;48.014;21.384;2023-02-13T00:53:22;102861.72;;;-2.53;100.00
69766;BME280;57039;48.014;21.384;2023-02-13T00:54:25;102854.81;;;-2.54;100.00
69766;BME280;57039;48.014;21.384;2023-02-13T00:55:28;102858.25;;;-2.54;100.00
69766;BME280;57039;48.014;21.384;2023-02-13T00:56:31;102854.53;;;-2.62;100.00
69766;BME280;57039;48.014;21.384;2023-02-13T00:57:34;102867.50;;;-2.59;100.00
69766;BME280;57039;48.014;21.384;2023-02-13T00:58:38;102868.97;;;-2.65;100.00
69766;BME280;57039;48.014;21.384;2023-02-13T00:59:41;102879.25;;;-2.65;100.00
69766;BME280;57039;48.014;21.384;2023-02-13T01:00:44;102874.97;;;-2.65;100.00
69766;BME280;57039;48.014;21.384;2023-02-13T01:01:51;102865.34;;;-2.70;100.00
69766;BME280;57039;48.014;21.384;2023-02-13T01:02:54;102868.53;;;-2.76;100.00
69766;BME280;57039;48.014;21.384;2023-02-13T01:03:57;102886.97;;;-2.64;100.00
69766;BME280;57039;48.014;21.384;2023-02-13T01:05:02;102871.53;;;-2.65;100.00
69766;BME280;57039;48.014;21.384;2023-02-13T01:06:05;102860.19;;;-2.70;100.00
69766;BME280;57039;48.014;21.384;2023-02-13T01:07:08;102872.28;;;-2.68;100.00
69766;BME280;57039;48.014;21.384;2023-02-13T01:08:15;102876.66;;;-2.65;100.00
69766;BME280;57039;48.014;21.384;2023-02-13T01:09:18;102864.34;;;-2.74;100.00
69766;BME280;57039;48.014;21.384;2023-02-13T01:10:21;102873.00;;;-2.72;100.00
69766;BME280;57039;48.014;21.384;2023-02-13T01:11:24;102877.44;;;-2.68;100.00
69766;BME280;57039;48.014;21.384;2023-02-13T01:12:27;102879.06;;;-2.70;100.00
69766;BME280;57039;48.014;21.384;2023-02-13T01:13:30;102876.38;;;-2.73;100.00
69766;BME280;57039;48.014;21.384;2023-02-13T01:14:33;102873.75;;;-2.74;100.00
69766;BME280;57039;48.014;21.384;2023-02-13T01:15:36;102869.25;;;-2.80;100.00
69766;BME280;57039;48.014;21.384;2023-02-13T01:16:39;102875.50;;;-2.73;100.00
69766;BME280;57039;48.014;21.384;2023-02-13T01:17:42;102877.25;;;-2.72;100.00
69766;BME280;57039;48.014;21.384;2023-02-13T01:18:44;102881.56;;;-2.71;100.00
69766;BME280;57039;48.014;21.384;2023-02-13T01:19:47;102876.44;;;-2.71;100.00
69766;BME280;57039;48.014;21.384;2023-02-13T01:20:59;102878.19;;;-2.70;100.00
69766;BME280;57039;48.014;21.384;2023-02-13T01:22:02;102883.41;;;-2.69;100.00
69766;BME280;57039;48.014;21.384;2023-02-13T01:23:05;102853.66;;;-2.85;100.00
69766;BME280;57039;48.014;21.384;2023-02-13T01:24:08;102882.50;;;-2.69;100.00
69766;BME280;57039;48.014;21.384;2023-02-13T01:25:11;102885.97;;;-2.69;100.00
69766;BME280;57039;48.014;21.384;2023-02-13T01:26:22;102881.63;;;-2.70;100.00
69766;BME280;57039;48.014;21.384;2023-02-13T01:27:27;102886.75;;;-2.70;100.00
69766;BME280;57039;48.014;21.384;2023-02-13T01:28:30;102882.50;;;-2.69;100.00
69766;BME280;57039;48.014;21.384;2023-02-13T01:29:33;102876.38;;;-2.73;100.00
69766;BME280;57039;48.014;21.384;2023-02-13T01:30:36;102890.16;;;-2.71;100.00
69766;BME280;57039;48.014;21.384;2023-02-13T01:31:39;102879.12;;;-2.68;100.00
69766;BME280;57039;48.014;21.384;2023-02-13T01:32:44;102870.47;;;-2.70;100.00
69766;BME280;57039;48.014;21.384;2023-02-13T01:33:48;102875.84;;;-2.64;100.00
69766;BME280;57039;48.014;21.384;2023-02-13T01:34:50;102884.37;;;-2.65;100.00
69766;BME280;57039;48.014;21.384;2023-02-13T01:35:53;102869.84;;;-2.65;100.00
69766;BME280;57039;48.014;21.384;2023-02-13T01:36:56;102881.91;;;-2.62;100.00
69766;BME280;57039;48.014;21.384;2023-02-13T01:37:59;102870.03;;;-2.60;100.00
69766;BME280;57039;48.014;21.384;2023-02-13T01:39:02;102867.59;;;-2.56;100.00
69766;BME280;57039;48.014;21.384;2023-02-13T01:40:07;102875.50;;;-2.51;100.00
69766;BME280;57039;48.014;21.384;2023-02-13T01:41:12;102872.97;;;-2.49;100.00
69766;BME280;57039;48.014;21.384;2023-02-13T01:42:24;102874.72;;;-2.48;100.00
69766;BME280;57039;48.014;21.384;2023-02-13T01:43:53;102873.72;;;-2.52;100.00
69766;BME280;57039;48.014;21.384;2023-02-13T01:46:02;102859.22;;;-2.74;100.00
69766;BME280;57039;48.014;21.384;2023-02-13T01:47:08;102874.66;;;-2.72;100.00
69766;BME280;57039;48.014;21.384;2023-02-13T01:48:13;102851.91;;;-2.86;100.00
69766;BME280;57039;48.014;21.384;2023-02-13T01:49:20;102873.69;;;-2.76;100.00
69766;BME280;57039;48.014;21.384;2023-02-13T01:51:48;102863.06;;;-2.85;100.00
69766;BME280;57039;48.014;21.384;2023-02-13T01:53:18;102849.12;;;-2.92;100.00
69766;BME280;57039;48.014;21.384;2023-02-13T01:54:29;102862.53;;;-2.77;100.00
69766;BME280;57039;48.014;21.384;2023-02-13T01:55:35;102804.12;;;-3.05;100.00
69766;BME280;57039;48.014;21.384;2023-02-13T01:56:43;102853.13;;;-2.76;100.00
69766;BME280;57039;48.014;21.384;2023-02-13T01:57:52;102843.37;;;-2.85;100.00
69766;BME280;57039;48.014;21.384;2023-02-13T01:59:00;102857.47;;;-2.75;100.00
69766;BME280;57039;48.014;21.384;2023-02-13T02:00:08;102852.38;;;-2.73;100.00
69766;BME280;57039;48.014;21.384;2023-02-13T02:01:18;102851.62;;;-2.71;100.00
69766;BME280;57039;48.014;21.384;2023-02-13T02:02:23;102850.44;;;-2.79;100.00
69766;BME280;57039;48.014;21.384;2023-02-13T02:04:37;102851.31;;;-2.79;100.00
69766;BME280;57039;48.014;21.384;2023-02-13T02:05:42;102852.25;;;-2.77;100.00
69766;BME280;57039;48.014;21.384;2023-02-13T02:06:48;102847.25;;;-2.73;100.00
69766;BME280;57039;48.014;21.384;2023-02-13T02:07:57;102848.97;;;-2.72;100.00
69766;BME280;57039;48.014;21.384;2023-02-13T02:09:09;102837.72;;;-2.76;100.00
69766;BME280;57039;48.014;21.384;2023-02-13T02:10:16;102847.34;;;-2.70;100.00
69766;BME280;57039;48.014;21.384;2023-02-13T02:11:43;102849.06;;;-2.71;100.00
69766;BME280;57039;48.014;21.384;2023-02-13T02:13:03;102844.63;;;-2.75;100.00
69766;BME280;57039;48.014;21.384;2023-02-13T02:14:08;102842.22;;;-2.70;100.00
69766;BME280;57039;48.014;21.384;2023-02-13T02:15:11;102844.78;;;-2.70;100.00
69766;BME280;57039;48.014;21.384;2023-02-13T02:16:14;102846.47;;;-2.71;100.00
69766;BME280;57039;48.014;21.384;2023-02-13T02:17:19;102845.66;;;-2.70;100.00
69766;BME280;57039;48.014;21.384;2023-02-13T02:18:23;102846.47;;;-2.71;100.00
69766;BME280;57039;48.014;21.384;2023-02-13T02:24:39;102831.59;;;-2.80;100.00
69766;BME280;57039;48.014;21.384;2023-02-13T02:26:10;102845.62;;;-2.71;100.00
69766;BME280;57039;48.014;21.384;2023-02-13T02:39:55;102839.50;;;-2.75;100.00
69766;BME280;57039;48.014;21.384;2023-02-13T02:41:09;102849.88;;;-2.72;100.00
69766;BME280;57039;48.014;21.384;2023-02-13T02:43:51;102834.50;;;-2.70;100.00
69766;BME280;57039;48.014;21.384;2023-02-13T02:45:18;102843.91;;;-2.71;100.00
69766;BME280;57039;48.014;21.384;2023-02-13T02:46:32;102843.84;;;-2.72;100.00
69766;BME280;57039;48.014;21.384;2023-02-13T02:49:18;102828.62;;;-2.68;100.00
69766;BME280;57039;48.014;21.384;2023-02-13T02:50:50;102846.09;;;-2.58;100.00
69766;BME280;57039;48.014;21.384;2023-02-13T02:53:41;102852.19;;;-2.56;100.00
69766;BME280;57039;48.014;21.384;2023-02-13T02:54:52;102856.38;;;-2.58;100.00
69766;BME280;57039;48.014;21.384;2023-02-13T02:56:42;102854.75;;;-2.56;100.00
69766;BME280;57039;48.014;21.384;2023-02-13T02:57:54;102852.31;;;-2.53;100.00
69766;BME280;57039;48.014;21.384;2023-02-13T02:59:20;102855.91;;;-2.47;100.00
69766;BME280;57039;48.014;21.384;2023-02-13T03:00:43;102850.88;;;-2.44;100.00
69766;BME280;57039;48.014;21.384;2023-02-13T03:02:07;102849.19;;;-2.44;100.00
69766;BME280;57039;48.014;21.384;2023-02-13T03:03:30;102847.50;;;-2.43;100.00
69766;BME280;57039;48.014;21.384;2023-02-13T03:04:54;102852.84;;;-2.37;100.00
69766;BME280;57039;48.014;21.384;2023-02-13T03:07:35;102859.16;;;-2.29;100.00
69766;BME280;57039;48.014;21.384;2023-02-13T03:08:42;102862.03;;;-2.20;100.00
69766;BME280;57039;48.014;21.384;2023-02-13T03:10:10;102861.41;;;-2.14;100.00
69766;BME280;57039;48.014;21.384;2023-02-13T03:11:31;102864.94;;;-2.11;100.00
69766;BME280;57039;48.014;21.384;2023-02-13T03:12:58;102865.78;;;-2.12;100.00
69766;BME280;57039;48.014;21.384;2023-02-13T03:14:24;102869.09;;;-2.14;100.00
69766;BME280;57039;48.014;21.384;2023-02-13T03:15:29;102864.06;;;-2.11;100.00
69766;BME280;57039;48.014;21.384;2023-02-13T03:16:31;102843.31;;;-2.16;100.00
69766;BME280;57039;48.014;21.384;2023-02-13T03:17:55;102864.28;;;-2.05;100.00
69766;BME280;57039;48.014;21.384;2023-02-13T03:24:35;102867.66;;;-1.82;100.00
69766;BME280;57039;48.014;21.384;2023-02-13T03:27:04;102862.41;;;-1.85;100.00
69766;BME280;57039;48.014;21.384;2023-02-13T03:29:59;102860.84;;;-1.80;100.00
69766;BME280;57039;48.014;21.384;2023-02-13T03:31:14;102858.28;;;-1.80;100.00
69766;BME280;57039;48.014;21.384;2023-02-13T03:34:06;102860.91;;;-1.78;100.00
69766;BME280;57039;48.014;21.384;2023-02-13T03:37:00;102869.50;;;-1.78;100.00
69766;BME280;57039;48.014;21.384;2023-02-13T03:38:28;102860.81;;;-1.81;100.00
69766;BME280;57039;48.014;21.384;2023-02-13T03:41:27;102859.88;;;-1.84;100.00
69766;BME280;57039;48.014;21.384;2023-02-13T03:43:26;102853.97;;;-1.81;100.00
69766;BME280;57039;48.014;21.384;2023-02-13T03:44:36;102848.81;;;-1.81;100.00
69766;BME280;57039;48.014;21.384;2023-02-13T03:45:44;102853.97;;;-1.81;100.00
69766;BME280;57039;48.014;21.384;2023-02-13T03:47:04;102849.78;;;-1.77;100.00
69766;BME280;57039;48.014;21.384;2023-02-13T03:48:08;102828.69;;;-1.93;100.00
69766;BME280;57039;48.014;21.384;2023-02-13T03:49:35;102843.97;;;-1.72;100.00
69766;BME280;57039;48.014;21.384;2023-02-13T03:51:02;102843.09;;;-1.72;100.00
69766;BME280;57039;48.014;21.384;2023-02-13T03:53:14;102849.09;;;-1.73;100.00
69766;BME280;57039;48.014;21.384;2023-02-13T03:54:51;102846.63;;;-1.70;100.00
69766;BME280;57039;48.014;21.384;2023-02-13T03:56:15;102836.16;;;-1.75;100.00
69766;BME280;57039;48.014;21.384;2023-02-13T03:57:40;102844.91;;;-1.70;100.00
69766;BME280;57039;48.014;21.384;2023-02-13T03:59:04;102828.16;;;-1.83;100.00
69766;BME280;57039;48.014;21.384;2023-02-13T04:00:17;102843.97;;;-1.72;100.00
69766;BME280;57039;48.014;21.384;2023-02-13T04:01:27;102840.66;;;-1.68;100.00
69766;BME280;57039;48.014;21.384;2023-02-13T04:02:36;102842.28;;;-1.71;100.00
69766;BME280;57039;48.014;21.384;2023-02-13T04:05:07;102836.31;;;-1.70;100.00
69766;BME280;57039;48.014;21.384;2023-02-13T04:06:16;102836.91;;;-1.77;100.00
69766;BME280;57039;48.014;21.384;2023-02-13T04:07:23;102831.69;;;-1.80;100.00
69766;BME280;57039;48.014;21.384;2023-02-13T04:08:34;102823.75;;;-1.87;100.00
69766;BME280;57039;48.014;21.384;2023-02-13T04:09:40;102833.28;;;-1.84;100.00
69766;BME280;57039;48.014;21.384;2023-02-13T04:10:54;102833.19;;;-1.87;100.00
69766;BME280;57039;48.014;21.384;2023-02-13T04:12:20;102827.25;;;-1.85;100.00
69766;BME280;57039;48.014;21.384;2023-02-13T04:13:33;102829.94;;;-1.81;100.00
69766;BME280;57039;48.014;21.384;2023-02-13T04:14:49;102832.66;;;-1.77;100.00
69766;BME280;57039;48.014;21.384;2023-02-13T04:17:11;102838.91;;;-1.70;100.00
69766;BME280;57039;48.014;21.384;2023-02-13T04:18:22;102833.69;;;-1.72;100.00
69766;BME280;57039;48.014;21.384;2023-02-13T04:19:27;102832.91;;;-1.69;100.00
69766;BME280;57039;48.014;21.384;2023-02-13T04:20:33;102838.09;;;-1.68;100.00
69766;BME280;57039;48.014;21.384;2023-02-13T04:21:38;102841.66;;;-1.64;100.00
69766;BME280;57039;48.014;21.384;2023-02-13T04:22:46;102846.09;;;-1.60;100.00
69766;BME280;57039;48.014;21.384;2023-02-13T04:23:49;102840.16;;;-1.57;100.00
69766;BME280;57039;48.014;21.384;2023-02-13T04:24:52;102841.97;;;-1.55;100.00
69766;BME280;57039;48.014;21.384;2023-02-13T04:26:02;102843.69;;;-1.55;100.00
69766;BME280;57039;48.014;21.384;2023-02-13T04:27:07;102729.13;;;-2.22;100.00
69766;BME280;57039;48.014;21.384;2023-02-13T04:28:12;102836.66;;;-1.59;100.00
69766;BME280;57039;48.014;21.384;2023-02-13T04:29:14;102836.47;;;-1.66;100.00
69766;BME280;57039;48.014;21.384;2023-02-13T04:30:18;102848.72;;;-1.58;100.00
69766;BME280;57039;48.014;21.384;2023-02-13T04:31:20;102832.28;;;-1.62;100.00
69766;BME280;57039;48.014;21.384;2023-02-13T04:32:23;102845.25;;;-1.59;100.00
69766;BME280;57039;48.014;21.384;2023-02-13T04:33:26;102837.50;;;-1.61;100.00
69766;BME280;57039;48.014;21.384;2023-02-13T04:34:29;102839.22;;;-1.59;100.00
69766;BME280;57039;48.014;21.384;2023-02-13T04:35:32;102838.53;;;-1.55;100.00
69766;BME280;57039;48.014;21.384;2023-02-13T04:36:35;102840.47;;;-1.48;100.00
69766;BME280;57039;48.014;21.384;2023-02-13T04:37:38;102834.56;;;-1.44;100.00
69766;BME280;57039;48.014;21.384;2023-02-13T04:38:41;102840.72;;;-1.41;100.00
69766;BME280;57039;48.014;21.384;2023-02-13T04:39:43;102816.47;;;-1.47;100.00
69766;BME280;57039;48.014;21.384;2023-02-13T04:40:47;102830.28;;;-1.44;100.00
69766;BME280;57039;48.014;21.384;2023-02-13T04:41:49;102837.91;;;-1.47;100.00
69766;BME280;57039;48.014;21.384;2023-02-13T04:42:52;102832.75;;;-1.48;100.00
69766;BME280;57039;48.014;21.384;2023-02-13T04:43:55;102832.75;;;-1.48;100.00
69766;BME280;57039;48.014;21.384;2023-02-13T04:44:57;102836.16;;;-1.49;100.00
69766;BME280;57039;48.014;21.384;2023-02-13T04:46:00;102833.59;;;-1.48;100.00
69766;BME280;57039;48.014;21.384;2023-02-13T04:47:03;102830.25;;;-1.45;100.00
69766;BME280;57039;48.014;21.384;2023-02-13T04:48:07;102833.72;;;-1.45;100.00
69766;BME280;57039;48.014;21.384;2023-02-13T04:49:10;102830.00;;;-1.53;100.00
69766;BME280;57039;48.014;21.384;2023-02-13T04:50:13;102823.59;;;-1.66;100.00
69766;BME280;57039;48.014;21.384;2023-02-13T04:51:17;102819.28;;;-1.67;100.00
69766;BME280;57039;48.014;21.384;2023-02-13T04:52:19;102819.28;;;-1.67;100.00
69766;BME280;57039;48.014;21.384;2023-02-13T04:53:22;102837.28;;;-1.67;100.00
69766;BME280;57039;48.014;21.384;2023-02-13T04:54:25;102823.69;;;-1.63;100.00
69766;BME280;57039;48.014;21.384;2023-02-13T04:55:28;102826.44;;;-1.58;100.00
69766;BME280;57039;48.014;21.384;2023-02-13T04:56:31;102831.69;;;-1.55;100.00
69766;BME280;57039;48.014;21.384;2023-02-13T04:57:34;102834.19;;;-1.56;100.00
69766;BME280;57039;48.014;21.384;2023-02-13T04:58:37;102835.94;;;-1.55;100.00
69766;BME280;57039;48.014;21.384;2023-02-13T04:59:40;102837.69;;;-1.54;100.00
69766;BME280;57039;48.014;21.384;2023-02-13T05:00:43;102836.72;;;-1.58;100.00
69766;BME280;57039;48.014;21.384;2023-02-13T05:01:46;102832.44;;;-1.57;100.00
69766;BME280;57039;48.014;21.384;2023-02-13T05:02:49;102834.19;;;-1.56;100.00
69766;BME280;57039;48.014;21.384;2023-02-13T05:03:52;102837.69;;;-1.54;100.00
69766;BME280;57039;48.014;21.384;2023-02-13T05:04:55;102804.44;;;-1.74;100.00
69766;BME280;57039;48.014;21.384;2023-02-13T05:05:59;102833.47;;;-1.52;100.00
69766;BME280;57039;48.014;21.384;2023-02-13T05:07:02;102845.50;;;-1.51;100.00
69766;BME280;57039;48.014;21.384;2023-02-13T05:08:06;102841.22;;;-1.51;100.00
69766;BME280;57039;48.014;21.384;2023-02-13T05:09:09;102842.00;;;-1.53;100.00
69766;BME280;57039;48.014;21.384;2023-02-13T05:10:12;102846.28;;;-1.54;100.00
69766;BME280;57039;48.014;21.384;2023-02-13T05:11:15;102845.25;;;-1.59;100.00
69766;BME280;57039;48.014;21.384;2023-02-13T05:12:18;102842.75;;;-1.57;100.00
69766;BME280;57039;48.014;21.384;2023-02-13T05:13:21;102835.03;;;-1.57;100.00
69766;BME280;57039;48.014;21.384;2023-02-13T05:14:24;102826.25;;;-1.63;100.00
69766;BME280;57039;48.014;21.384;2023-02-13T05:15:27;102838.38;;;-1.60;100.00
69766;BME280;57039;48.014;21.384;2023-02-13T05:16:30;102834.94;;;-1.59;100.00
69766;BME280;57039;48.014;21.384;2023-02-13T05:17:33;102836.63;;;-1.61;100.00
69766;BME280;57039;48.014;21.384;2023-02-13T05:18:36;102772.78;;;-1.98;100.00
69766;BME280;57039;48.014;21.384;2023-02-13T05:19:38;102828.75;;;-1.66;100.00
69766;BME280;57039;48.014;21.384;2023-02-13T05:20:41;102833.78;;;-1.69;100.00
69766;BME280;57039;48.014;21.384;2023-02-13T05:21:44;102833.78;;;-1.69;100.00
69766;BME280;57039;48.014;21.384;2023-02-13T05:23:13;102835.50;;;-1.69;100.00
69766;BME280;57039;48.014;21.384;2023-02-13T05:24:25;102841.50;;;-1.69;100.00
69766;BME280;57039;48.014;21.384;2023-02-13T05:25:28;102849.09;;;-1.73;100.00
69766;BME280;57039;48.014;21.384;2023-02-13T05:26:31;102846.41;;;-1.76;100.00
69766;BME280;57039;48.014;21.384;2023-02-13T05:27:33;102848.09;;;-1.77;100.00
69766;BME280;57039;48.014;21.384;2023-02-13T05:28:36;102849.78;;;-1.77;100.00
69766;BME280;57039;48.014;21.384;2023-02-13T05:29:58;102853.22;;;-1.77;100.00
69766;BME280;57039;48.014;21.384;2023-02-13T05:31:01;102857.50;;;-1.77;100.00
69766;BME280;57039;48.014;21.384;2023-02-13T05:32:05;102841.75;;;-1.87;100.00
69766;BME280;57039;48.014;21.384;2023-02-13T05:33:07;102859.28;;;-1.76;100.00
69766;BME280;57039;48.014;21.384;2023-02-13T05:34:10;102859.19;;;-1.79;100.00
69766;BME280;57039;48.014;21.384;2023-02-13T05:35:13;102857.47;;;-1.79;100.00
69766;BME280;57039;48.014;21.384;2023-02-13T05:36:16;102856.53;;;-1.81;100.00
69766;BME280;57039;48.014;21.384;2023-02-13T05:37:19;102852.12;;;-1.85;100.00
69766;BME280;57039;48.014;21.384;2023-02-13T05:38:22;102848.53;;;-1.89;100.00
69766;BME280;57039;48.014;21.384;2023-02-13T05:39:25;102853.56;;;-1.93;100.00
69766;BME280;57039;48.014;21.384;2023-02-13T05:40:28;102839.44;;;-2.04;100.00
69766;BME280;57039;48.014;21.384;2023-02-13T05:41:31;102855.91;;;-1.99;100.00
69766;BME280;57039;48.014;21.384;2023-02-13T05:42:34;102852.41;;;-2.01;100.00
69766;BME280;57039;48.014;21.384;2023-02-13T05:43:37;102843.53;;;-2.10;100.00
69766;BME280;57039;48.014;21.384;2023-02-13T05:44:40;102850.44;;;-2.09;100.00
69766;BME280;57039;48.014;21.384;2023-02-13T05:45:43;102853.13;;;-2.05;100.00
69766;BME280;57039;48.014;21.384;2023-02-13T05:46:46;103370.41;;;-2.08;100.00
69766;BME280;57039;48.014;21.384;2023-02-13T05:47:49;102846.84;;;-2.14;100.00
69766;BME280;57039;48.014;21.384;2023-02-13T05:48:52;102864.00;;;-2.13;100.00
69766;BME280;57039;48.014;21.384;2023-02-13T05:49:56;102857.09;;;-2.15;100.00
69766;BME280;57039;48.014;21.384;2023-02-13T05:50:59;77818.28;;;-2.19;100.00
69766;BME280;57039;48.014;21.384;2023-02-13T15:09:27;102653.47;;;5.04;89.11
69766;BME280;57039;48.014;21.384;2023-02-13T15:10:53;102654.34;;;5.00;89.08
69766;BME280;57039;48.014;21.384;2023-02-13T15:11:57;102659.50;;;4.85;89.18
69766;BME280;57039;48.014;21.384;2023-02-13T15:13:02;102655.12;;;4.77;89.66
69766;BME280;57039;48.014;21.384;2023-02-13T15:14:32;102652.50;;;4.77;89.70
69766;BME280;57039;48.014;21.384;2023-02-13T15:15:36;102608.16;;;4.38;89.97
69766;BME280;57039;48.014;21.384;2023-02-13T15:16:39;102651.59;;;4.69;90.10
69766;BME280;57039;48.014;21.384;2023-02-13T15:17:42;102650.72;;;4.61;90.44
69766;BME280;57039;48.014;21.384;2023-02-13T15:18:48;102663.66;;;4.50;90.61
69766;BME280;57039;48.014;21.384;2023-02-13T15:19:58;102648.06;;;4.47;90.84
69766;BME280;57039;48.014;21.384;2023-02-13T15:21:04;102656.69;;;4.42;91.06
69766;BME280;57039;48.014;21.384;2023-02-13T15:22:18;102652.31;;;4.31;91.49
69766;BME280;57039;48.014;21.384;2023-02-13T15:23:25;102653.16;;;4.29;91.69
69766;BME280;57039;48.014;21.384;2023-02-13T15:24:37;102649.69;;;4.27;91.96
69766;BME280;57039;48.014;21.384;2023-02-13T15:25:40;102632.28;;;4.15;92.15
69766;BME280;57039;48.014;21.384;2023-02-13T15:26:50;102640.97;;;4.22;92.08
69766;BME280;57039;48.014;21.384;2023-02-13T15:27:55;102643.53;;;4.12;92.41
69766;BME280;57039;48.014;21.384;2023-02-13T15:29:13;102640.94;;;4.14;92.38
69766;BME280;57039;48.014;21.384;2023-02-13T15:30:31;102639.19;;;4.11;92.41
69766;BME280;57039;48.014;21.384;2023-02-13T15:31:35;102639.19;;;4.07;92.60
69766;BME280;57039;48.014;21.384;2023-02-13T15:32:41;102632.22;;;4.01;92.71
69766;BME280;57039;48.014;21.384;2023-02-13T15:33:46;102635.66;;;4.00;92.83
69766;BME280;57039;48.014;21.384;2023-02-13T15:34:49;102634.75;;;3.94;93.10
69766;BME280;57039;48.014;21.384;2023-02-13T15:35:57;102626.94;;;3.89;93.41
69766;BME280;57039;48.014;21.384;2023-02-13T15:37:01;102628.59;;;3.82;93.74
69766;BME280;57039;48.014;21.384;2023-02-13T15:39:31;102613.84;;;3.72;94.46
69766;BME280;57039;48.014;21.384;2023-02-13T15:40:38;102609.50;;;3.70;94.65
69766;BME280;57039;48.014;21.384;2023-02-13T15:41:49;102614.69;;;3.68;94.78
69766;BME280;57039;48.014;21.384;2023-02-13T15:42:55;102619.81;;;3.60;95.15
69766;BME280;57039;48.014;21.384;2023-02-13T15:43:59;102624.97;;;3.59;95.47
69766;BME280;57039;48.014;21.384;2023-02-13T15:45:03;102620.63;;;3.53;95.80
69766;BME280;57039;48.014;21.384;2023-02-13T15:46:26;102624.06;;;3.52;95.90
69766;BME280;57039;48.014;21.384;2023-02-13T15:47:31;102618.88;;;3.51;95.99
69766;BME280;57039;48.014;21.384;2023-02-13T15:48:35;102622.28;;;3.47;96.28